sensor_id;sensor_type;location;lat;lon;timestamp;pressure;altitude;pressure_sealevel;temperature;humidity
29907;BME280;16776;50.958;10.994;2023-10-09T00:00:32;98950.13;;;11.16;100.00
29907;BME280;16776;50.958;10.994;2023-10-09T00:03:17;98949.22;;;11.18;100.00
29907;BME280;16776;50.958;10.994;2023-10-09T00:05:44;98949.22;;;11.18;100.00
29907;BME280;16776;50.958;10.994;2023-10-09T00:08:12;98945.81;;;11.18;100.00
29907;BME280;16776;50.958;10.994;2023-10-09T00:10:42;98945.69;;;11.22;100.00
29907;BME280;16776;50.958;10.994;2023-10-09T00:13:16;98946.41;;;11.27;100.00
29907;BME280;16776;50.958;10.994;2023-10-09T00:15:43;98936.09;;;11.27;100.00
29907;BME280;16776;50.958;10.994;2023-10-09T00:18:17;98929.16;;;11.31;100.00
29907;BME280;16776;50.958;10.994;2023-10-09T00:20:48;98924.75;;;11.34;100.00
29907;BME280;16776;50.958;10.994;2023-10-09T00:23:19;98913.56;;;11.35;100.00
29907;BME280;16776;50.958;10.994;2023-10-09T00:25:51;98911.72;;;11.39;100.00
29907;BME280;16776;50.958;10.994;2023-10-09T00:28:35;98897.94;;;11.41;100.00
29907;BME280;16776;50.958;10.994;2023-10-09T00:31:03;98889.31;;;11.42;100.00
29907;BME280;16776;50.958;10.994;2023-10-09T00:33:33;98891.91;;;11.41;100.00
29907;BME280;16776;50.958;10.994;2023-10-09T00:36:03;98881.47;;;11.45;100.00
29907;BME280;16776;50.958;10.994;2023-10-09T00:38:34;98885.03;;;11.41;100.00
29907;BME280;16776;50.958;10.994;2023-10-09T00:41:03;98878.16;;;11.42;100.00
29907;BME280;16776;50.958;10.994;2023-10-09T00:43:37;98861.78;;;11.43;100.00
29907;BME280;16776;50.958;10.994;2023-10-09T00:46:08;98867.91;;;11.39;100.00
29907;BME280;16776;50.958;10.994;2023-10-09T00:48:50;98851.81;;;11.31;100.00
29907;BME280;16776;50.958;10.994;2023-10-09T00:51:18;98866.25;;;11.36;100.00
29907;BME280;16776;50.958;10.994;2023-10-09T00:53:47;98865.44;;;11.34;100.00
29907;BME280;16776;50.958;10.994;2023-10-09T00:56:17;98866.28;;;11.35;100.00
29907;BME280;16776;50.958;10.994;2023-10-09T00:58:57;98853.38;;;11.36;100.00
29907;BME280;16776;50.958;10.994;2023-10-09T01:01:33;98844.91;;;11.31;100.00
29907;BME280;16776;50.958;10.994;2023-10-09T01:04:02;98838.06;;;11.30;100.00
29907;BME280;16776;50.958;10.994;2023-10-09T01:06:41;98832.03;;;11.31;100.00
29907;BME280;16776;50.958;10.994;2023-10-09T01:09:11;98833.75;;;11.31;100.00
29907;BME280;16776;50.958;10.994;2023-10-09T01:11:39;98837.25;;;11.28;100.00
29907;BME280;16776;50.958;10.994;2023-10-09T01:14:17;98838.38;;;11.18;100.00
29907;BME280;16776;50.958;10.994;2023-10-09T01:16:46;98857.13;;;11.25;100.00
29907;BME280;16776;50.958;10.994;2023-10-09T01:19:13;98858.84;;;11.24;100.00
29907;BME280;16776;50.958;10.994;2023-10-09T01:21:45;98846.84;;;11.23;100.00
29907;BME280;16776;50.958;10.994;2023-10-09T01:24:13;98844.25;;;11.23;100.00
29907;BME280;16776;50.958;10.994;2023-10-09T01:26:44;98846.03;;;11.21;100.00
29907;BME280;16776;50.958;10.994;2023-10-09T01:29:13;98829.84;;;11.16;100.00
29907;BME280;16776;50.958;10.994;2023-10-09T01:31:45;98840.00;;;11.22;100.00
29907;BME280;16776;50.958;10.994;2023-10-09T01:34:18;98831.44;;;11.20;100.00
29907;BME280;16776;50.958;10.994;2023-10-09T01:36:50;98832.28;;;11.21;100.00
29907;BME280;16776;50.958;10.994;2023-10-09T01:39:21;98822.78;;;11.23;100.00
29907;BME280;16776;50.958;10.994;2023-10-09T01:41:49;98831.44;;;11.20;100.00
29907;BME280;16776;50.958;10.994;2023-10-09T01:44:24;98815.97;;;11.20;100.00
29907;BME280;16776;50.958;10.994;2023-10-09T01:46:51;98828.06;;;11.18;100.00
29907;BME280;16776;50.958;10.994;2023-10-09T01:49:20;98811.75;;;11.18;100.00
29907;BME280;16776;50.958;10.994;2023-10-09T01:51:56;98805.78;;;11.16;100.00
29907;BME280;16776;50.958;10.994;2023-10-09T01:54:29;98806.59;;;11.18;100.00
29907;BME280;16776;50.958;10.994;2023-10-09T01:57:03;98809.34;;;11.12;100.00
29907;BME280;16776;50.958;10.994;2023-10-09T01:59:35;98811.84;;;11.13;100.00
29907;BME280;16776;50.958;10.994;2023-10-09T02:02:05;98798.09;;;11.14;100.00
29907;BME280;16776;50.958;10.994;2023-10-09T02:04:42;98790.44;;;11.11;100.00
29907;BME280;16776;50.958;10.994;2023-10-09T02:07:09;98789.59;;;11.11;100.00
29907;BME280;16776;50.958;10.994;2023-10-09T02:09:37;98789.59;;;11.11;100.00
29907;BME280;16776;50.958;10.994;2023-10-09T02:12:11;98790.59;;;11.07;100.00
29907;BME280;16776;50.958;10.994;2023-10-09T02:14:39;98781.19;;;11.04;100.00
29907;BME280;16776;50.958;10.994;2023-10-09T02:17:07;98782.06;;;11.03;100.00
29907;BME280;16776;50.958;10.994;2023-10-09T02:19:43;98785.63;;;10.99;100.00
29907;BME280;16776;50.958;10.994;2023-10-09T02:22:13;98790.84;;;10.96;100.00
29907;BME280;16776;50.958;10.994;2023-10-09T02:24:44;98766.75;;;10.97;100.00
29907;BME280;16776;50.958;10.994;2023-10-09T02:27:23;98766.94;;;10.91;100.00
29907;BME280;16776;50.958;10.994;2023-10-09T02:30:04;98759.25;;;10.88;100.00
29907;BME280;16776;50.958;10.994;2023-10-09T02:32:41;98754.19;;;10.85;100.00
29907;BME280;16776;50.958;10.994;2023-10-09T02:35:11;98749.88;;;10.87;100.00
29907;BME280;16776;50.958;10.994;2023-10-09T02:38:02;98748.34;;;10.80;100.00
29907;BME280;16776;50.958;10.994;2023-10-09T02:40:33;98742.34;;;10.79;100.00
29907;BME280;16776;50.958;10.994;2023-10-09T02:43:06;98745.00;;;10.75;100.00
29907;BME280;16776;50.958;10.994;2023-10-09T02:45:37;98742.50;;;10.73;100.00
29907;BME280;16776;50.958;10.994;2023-10-09T02:48:16;98755.47;;;10.69;100.00
29907;BME280;16776;50.958;10.994;2023-10-09T02:50:44;98754.66;;;10.68;100.00
29907;BME280;16776;50.958;10.994;2023-10-09T02:53:11;98751.22;;;10.68;100.00
29907;BME280;16776;50.958;10.994;2023-10-09T02:55:45;98747.69;;;10.70;100.00
29907;BME280;16776;50.958;10.994;2023-10-09T02:58:31;98745.16;;;10.69;100.00
29907;BME280;16776;50.958;10.994;2023-10-09T03:01:02;98755.53;;;10.67;100.00
29907;BME280;16776;50.958;10.994;2023-10-09T03:03:28;98753.78;;;10.68;100.00
29907;BME280;16776;50.958;10.994;2023-10-09T03:05:55;98756.38;;;10.68;100.00
29907;BME280;16776;50.958;10.994;2023-10-09T03:08:21;98758.03;;;10.69;100.00
29907;BME280;16776;50.958;10.994;2023-10-09T03:10:49;98760.56;;;10.72;100.00
29907;BME280;16776;50.958;10.994;2023-10-09T03:13:16;98751.13;;;10.71;100.00
29907;BME280;16776;50.958;10.994;2023-10-09T03:15:45;98738.25;;;10.71;100.00
29907;BME280;16776;50.958;10.994;2023-10-09T03:18:13;98739.09;;;10.71;100.00
29907;BME280;16776;50.958;10.994;2023-10-09T03:20:40;98735.63;;;10.72;100.00
29907;BME280;16776;50.958;10.994;2023-10-09T03:23:09;98724.47;;;10.73;100.00
29907;BME280;16776;50.958;10.994;2023-10-09T03:25:39;98726.19;;;10.73;100.00
29907;BME280;16776;50.958;10.994;2023-10-09T03:28:09;98733.03;;;10.74;100.00
29907;BME280;16776;50.958;10.994;2023-10-09T03:30:35;98733.94;;;10.71;100.00
29907;BME280;16776;50.958;10.994;2023-10-09T03:33:05;98735.69;;;10.71;100.00
29907;BME280;16776;50.958;10.994;2023-10-09T03:35:32;98729.66;;;10.72;100.00
29907;BME280;16776;50.958;10.994;2023-10-09T03:38:00;98738.22;;;10.72;100.00
29907;BME280;16776;50.958;10.994;2023-10-09T03:40:35;98742.53;;;10.72;100.00
29907;BME280;16776;50.958;10.994;2023-10-09T03:43:09;98726.19;;;10.73;100.00
29907;BME280;16776;50.958;10.994;2023-10-09T03:45:37;98737.38;;;10.72;100.00
29907;BME280;16776;50.958;10.994;2023-10-09T03:48:05;98731.38;;;10.71;100.00
29907;BME280;16776;50.958;10.994;2023-10-09T03:50:41;98729.66;;;10.72;100.00
29907;BME280;16776;50.958;10.994;2023-10-09T03:53:08;98722.75;;;10.72;100.00
29907;BME280;16776;50.958;10.994;2023-10-09T03:55:39;98714.09;;;10.75;100.00
29907;BME280;16776;50.958;10.994;2023-10-09T03:58:06;98700.44;;;10.73;100.00
29907;BME280;16776;50.958;10.994;2023-10-09T04:00:38;98708.13;;;10.74;100.00
29907;BME280;16776;50.958;10.994;2023-10-09T04:03:10;98687.56;;;10.73;100.00
29907;BME280;16776;50.958;10.994;2023-10-09T04:05:37;98694.44;;;10.72;100.00
29907;BME280;16776;50.958;10.994;2023-10-09T04:08:07;98687.59;;;10.71;100.00
29907;BME280;16776;50.958;10.994;2023-10-09T04:10:41;98671.28;;;10.71;100.00
29907;BME280;16776;50.958;10.994;2023-10-09T04:13:18;98658.53;;;10.66;100.00
29907;BME280;16776;50.958;10.994;2023-10-09T04:15:50;98667.13;;;10.65;100.00
29907;BME280;16776;50.958;10.994;2023-10-09T04:18:19;98663.97;;;10.55;100.00
29907;BME280;16776;50.958;10.994;2023-10-09T04:20:53;98646.97;;;10.48;100.00
29907;BME280;16776;50.958;10.994;2023-10-09T04:23:44;98636.00;;;10.40;100.00
29907;BME280;16776;50.958;10.994;2023-10-09T04:26:28;98628.44;;;10.34;100.00
29907;BME280;16776;50.958;10.994;2023-10-09T04:28:58;98625.09;;;10.31;100.00
29907;BME280;16776;50.958;10.994;2023-10-09T04:31:26;98626.88;;;10.29;100.00
29907;BME280;16776;50.958;10.994;2023-10-09T04:33:57;98632.13;;;10.24;100.00
29907;BME280;16776;50.958;10.994;2023-10-09T04:36:47;98618.50;;;10.20;100.00
29907;BME280;16776;50.958;10.994;2023-10-09T04:39:14;98620.22;;;10.20;100.00
29907;BME280;16776;50.958;10.994;2023-10-09T04:42:00;98627.09;;;10.19;100.00
29907;BME280;16776;50.958;10.994;2023-10-09T04:44:41;98633.09;;;10.20;100.00
29907;BME280;16776;50.958;10.994;2023-10-09T04:47:26;98639.78;;;10.27;100.00
29907;BME280;16776;50.958;10.994;2023-10-09T04:50:01;98647.41;;;10.30;100.00
29907;BME280;16776;50.958;10.994;2023-10-09T04:52:36;98643.78;;;10.37;100.00
29907;BME280;16776;50.958;10.994;2023-10-09T04:55:19;98637.59;;;10.44;100.00
29907;BME280;16776;50.958;10.994;2023-10-09T04:57:51;98637.41;;;10.52;100.00
29907;BME280;16776;50.958;10.994;2023-10-09T05:00:28;98638.09;;;10.60;100.00
29907;BME280;16776;50.958;10.994;2023-10-09T05:03:13;98639.56;;;10.69;100.00
29907;BME280;16776;50.958;10.994;2023-10-09T05:05:51;98645.50;;;10.72;100.00
29907;BME280;16776;50.958;10.994;2023-10-09T05:08:26;98646.16;;;10.79;100.00
29907;BME280;16776;50.958;10.994;2023-10-09T05:10:57;98636.56;;;10.84;100.00
29907;BME280;16776;50.958;10.994;2023-10-09T05:13:41;98639.09;;;10.87;100.00
29907;BME280;16776;50.958;10.994;2023-10-09T05:16:12;98634.63;;;10.92;100.00
29907;BME280;16776;50.958;10.994;2023-10-09T05:18:42;98635.38;;;10.95;100.00
29907;BME280;16776;50.958;10.994;2023-10-09T05:21:10;98634.53;;;10.95;100.00
29907;BME280;16776;50.958;10.994;2023-10-09T05:23:51;98638.81;;;10.96;100.00
29907;BME280;16776;50.958;10.994;2023-10-09T05:26:42;98637.84;;;11.00;100.00
29907;BME280;16776;50.958;10.994;2023-10-09T05:29:17;98634.47;;;10.98;100.00
29907;BME280;16776;50.958;10.994;2023-10-09T05:31:45;98633.50;;;11.00;100.00
29907;BME280;16776;50.958;10.994;2023-10-09T05:34:23;98634.28;;;11.04;100.00
29907;BME280;16776;50.958;10.994;2023-10-09T05:36:59;98646.31;;;11.03;100.00
29907;BME280;16776;50.958;10.994;2023-10-09T05:39:41;98637.50;;;11.12;100.00
29907;BME280;16776;50.958;10.994;2023-10-09T05:42:08;98646.28;;;11.05;100.00
29907;BME280;16776;50.958;10.994;2023-10-09T05:44:35;98644.41;;;11.10;100.00
29907;BME280;16776;50.958;10.994;2023-10-09T05:47:19;98651.22;;;11.13;100.00
29907;BME280;16776;50.958;10.994;2023-10-09T05:50:02;98642.47;;;11.18;100.00
29907;BME280;16776;50.958;10.994;2023-10-09T05:52:42;98645.84;;;11.20;100.00
29907;BME280;16776;50.958;10.994;2023-10-09T05:55:34;98656.88;;;11.25;100.00
29907;BME280;16776;50.958;10.994;2023-10-09T05:58:26;98649.88;;;11.29;100.00
29907;BME280;16776;50.958;10.994;2023-10-09T06:01:10;98650.63;;;11.32;100.00
29907;BME280;16776;50.958;10.994;2023-10-09T06:03:54;98665.13;;;11.36;100.00
29907;BME280;16776;50.958;10.994;2023-10-09T06:06:38;98663.22;;;11.43;100.00
29907;BME280;16776;50.958;10.994;2023-10-09T06:09:11;98665.78;;;11.44;100.00
29907;BME280;16776;50.958;10.994;2023-10-09T06:12:15;98663.09;;;11.48;100.00
29907;BME280;16776;50.958;10.994;2023-10-09T06:14:59;98665.50;;;11.52;100.00
29907;BME280;16776;50.958;10.994;2023-10-09T06:17:45;98675.72;;;11.57;100.00
29907;BME280;16776;50.958;10.994;2023-10-09T06:20:15;98684.19;;;11.62;100.00
29907;BME280;16776;50.958;10.994;2023-10-09T06:23:01;98673.03;;;11.61;100.00
29907;BME280;16776;50.958;10.994;2023-10-09T06:25:42;98692.44;;;11.73;100.00
29907;BME280;16776;50.958;10.994;2023-10-09T06:28:17;98680.38;;;11.73;100.00
29907;BME280;16776;50.958;10.994;2023-10-09T06:30:44;98679.28;;;11.82;100.00
29907;BME280;16776;50.958;10.994;2023-10-09T06:33:13;98673.97;;;11.87;100.00
29907;BME280;16776;50.958;10.994;2023-10-09T06:35:45;98683.25;;;11.92;100.00
29907;BME280;16776;50.958;10.994;2023-10-09T06:38:20;98687.31;;;11.99;100.00
29907;BME280;16776;50.958;10.994;2023-10-09T06:41:05;98691.47;;;12.03;100.00
29907;BME280;16776;50.958;10.994;2023-10-09T06:44:00;98691.28;;;12.09;100.00
29907;BME280;16776;50.958;10.994;2023-10-09T06:46:31;98686.69;;;12.19;100.00
29907;BME280;16776;50.958;10.994;2023-10-09T06:49:09;98688.19;;;12.26;100.00
29907;BME280;16776;50.958;10.994;2023-10-09T06:51:53;98685.28;;;12.35;100.00
29907;BME280;16776;50.958;10.994;2023-10-09T06:54:22;98684.09;;;12.45;100.00
29907;BME280;16776;50.958;10.994;2023-10-09T06:56:50;98684.75;;;12.52;100.00
29907;BME280;16776;50.958;10.994;2023-10-09T06:59:37;98680.13;;;12.61;100.00
29907;BME280;16776;50.958;10.994;2023-10-09T07:02:30;98681.44;;;12.73;100.00
29907;BME280;16776;50.958;10.994;2023-10-09T07:05:11;98689.56;;;12.87;100.00
29907;BME280;16776;50.958;10.994;2023-10-09T07:07:43;98699.41;;;13.01;100.00
29907;BME280;16776;50.958;10.994;2023-10-09T07:10:21;98712.66;;;13.17;100.00
29907;BME280;16776;50.958;10.994;2023-10-09T07:12:59;98722.59;;;13.27;100.00
29907;BME280;16776;50.958;10.994;2023-10-09T07:15:25;98718.78;;;13.37;100.00
29907;BME280;16776;50.958;10.994;2023-10-09T07:18:10;98724.53;;;13.46;100.00
29907;BME280;16776;50.958;10.994;2023-10-09T07:20:48;98716.56;;;13.50;100.00
29907;BME280;16776;50.958;10.994;2023-10-09T07:23:27;98720.75;;;13.56;100.00
29907;BME280;16776;50.958;10.994;2023-10-09T07:26:04;98720.38;;;13.65;100.00
29907;BME280;16776;50.958;10.994;2023-10-09T07:28:46;98715.34;;;13.62;100.00
29907;BME280;16776;50.958;10.994;2023-10-09T07:31:18;98712.44;;;13.69;100.00
29907;BME280;16776;50.958;10.994;2023-10-09T07:33:52;98709.13;;;13.66;100.00
29907;BME280;16776;50.958;10.994;2023-10-09T07:36:23;98714.22;;;13.69;100.00
29907;BME280;16776;50.958;10.994;2023-10-09T07:39:00;98731.34;;;13.71;100.00
29907;BME280;16776;50.958;10.994;2023-10-09T07:41:32;98728.53;;;13.77;100.00
29907;BME280;16776;50.958;10.994;2023-10-09T07:44:04;98725.22;;;13.74;100.00
29907;BME280;16776;50.958;10.994;2023-10-09T07:46:59;98733.03;;;13.72;100.00
29907;BME280;16776;50.958;10.994;2023-10-09T07:49:42;98734.72;;;13.73;100.00
29907;BME280;16776;50.958;10.994;2023-10-09T07:52:14;98737.31;;;13.73;100.00
29907;BME280;16776;50.958;10.994;2023-10-09T07:54:47;98750.22;;;13.75;100.00
29907;BME280;16776;50.958;10.994;2023-10-09T07:57:20;98746.63;;;13.77;100.00
29907;BME280;16776;50.958;10.994;2023-10-09T07:59:51;98751.59;;;13.83;100.00
29907;BME280;16776;50.958;10.994;2023-10-09T08:02:27;98755.47;;;13.72;100.00
29907;BME280;16776;50.958;10.994;2023-10-09T08:04:59;98752.00;;;13.73;100.00
29907;BME280;16776;50.958;10.994;2023-10-09T08:07:29;98748.63;;;13.71;100.00
29907;BME280;16776;50.958;10.994;2023-10-09T08:10:03;98751.06;;;13.75;100.00
29907;BME280;16776;50.958;10.994;2023-10-09T08:12:49;98746.63;;;13.77;100.00
29907;BME280;16776;50.958;10.994;2023-10-09T08:15:25;98751.06;;;13.75;100.00
29907;BME280;16776;50.958;10.994;2023-10-09T08:18:00;98751.38;;;13.66;100.00
29907;BME280;16776;50.958;10.994;2023-10-09T08:20:35;98757.03;;;13.76;100.00
29907;BME280;16776;50.958;10.994;2023-10-09T08:23:16;98753.69;;;13.74;100.00
29907;BME280;16776;50.958;10.994;2023-10-09T08:25:58;98762.00;;;13.82;100.00
29907;BME280;16776;50.958;10.994;2023-10-09T08:28:39;98766.34;;;13.81;100.00
29907;BME280;16776;50.958;10.994;2023-10-09T08:31:08;98766.22;;;13.85;100.00
29907;BME280;16776;50.958;10.994;2023-10-09T08:33:44;98759.47;;;13.80;100.00
29907;BME280;16776;50.958;10.994;2023-10-09T08:36:10;98764.72;;;13.79;100.00
29907;BME280;16776;50.958;10.994;2023-10-09T08:38:40;98771.41;;;13.85;100.00
29907;BME280;16776;50.958;10.994;2023-10-09T08:41:08;98777.41;;;13.85;100.00
29907;BME280;16776;50.958;10.994;2023-10-09T08:43:50;98790.09;;;13.93;100.00
29907;BME280;16776;50.958;10.994;2023-10-09T08:46:22;98788.38;;;13.92;100.00
29907;BME280;16776;50.958;10.994;2023-10-09T08:48:52;98786.88;;;13.86;100.00
29907;BME280;16776;50.958;10.994;2023-10-09T08:51:19;98790.19;;;13.90;100.00
29907;BME280;16776;50.958;10.994;2023-10-09T08:53:46;98775.72;;;13.84;100.00
29907;BME280;16776;50.958;10.994;2023-10-09T08:56:13;98791.78;;;13.94;100.00
29907;BME280;16776;50.958;10.994;2023-10-09T08:58:51;98787.25;;;13.99;100.00
29907;BME280;16776;50.958;10.994;2023-10-09T09:01:23;98777.69;;;14.01;100.00
29907;BME280;16776;50.958;10.994;2023-10-09T09:03:50;98789.06;;;13.97;100.00
29907;BME280;16776;50.958;10.994;2023-10-09T09:06:21;98789.84;;;13.99;100.00
29907;BME280;16776;50.958;10.994;2023-10-09T09:08:49;98782.88;;;14.01;100.00
29907;BME280;16776;50.958;10.994;2023-10-09T09:11:20;98771.66;;;14.00;100.00
29907;BME280;16776;50.958;10.994;2023-10-09T09:14:04;98771.31;;;14.09;100.00
29907;BME280;16776;50.958;10.994;2023-10-09T09:16:32;98764.66;;;14.02;100.00
29907;BME280;16776;50.958;10.994;2023-10-09T09:19:01;98762.88;;;14.04;100.00
29907;BME280;16776;50.958;10.994;2023-10-09T09:21:31;98762.03;;;14.04;100.00
29907;BME280;16776;50.958;10.994;2023-10-09T09:24:03;98763.72;;;14.05;100.00
29907;BME280;16776;50.958;10.994;2023-10-09T09:26:41;98754.22;;;14.05;100.00
29907;BME280;16776;50.958;10.994;2023-10-09T09:29:13;98751.47;;;14.08;100.00
29907;BME280;16776;50.958;10.994;2023-10-09T09:31:52;98750.34;;;14.15;100.00
29907;BME280;16776;50.958;10.994;2023-10-09T09:34:18;98746.38;;;14.07;100.00
29907;BME280;16776;50.958;10.994;2023-10-09T09:36:52;98743.72;;;14.08;100.00
29907;BME280;16776;50.958;10.994;2023-10-09T09:39:22;98739.38;;;14.09;100.00
29907;BME280;16776;50.958;10.994;2023-10-09T09:41:57;98744.25;;;14.16;100.00
29907;BME280;16776;50.958;10.994;2023-10-09T09:44:31;98739.03;;;14.18;100.00
29907;BME280;16776;50.958;10.994;2023-10-09T09:47:00;98731.44;;;14.13;100.00
29907;BME280;16776;50.958;10.994;2023-10-09T09:49:27;98722.59;;;14.19;100.00
29907;BME280;16776;50.958;10.994;2023-10-09T09:51:58;98724.28;;;14.20;100.00
29907;BME280;16776;50.958;10.994;2023-10-09T09:54:26;98721.50;;;14.25;100.00
29907;BME280;16776;50.958;10.994;2023-10-09T09:56:54;98722.28;;;14.27;100.00
29907;BME280;16776;50.958;10.994;2023-10-09T09:59:24;98719.50;;;14.31;100.00
29907;BME280;16776;50.958;10.994;2023-10-09T10:01:55;98722.84;;;14.33;100.00
29907;BME280;16776;50.958;10.994;2023-10-09T10:04:26;98727.09;;;14.36;100.00
29907;BME280;16776;50.958;10.994;2023-10-09T10:06:54;98720.22;;;14.35;100.00
29907;BME280;16776;50.958;10.994;2023-10-09T10:09:35;98715.56;;;14.43;100.00
29907;BME280;16776;50.958;10.994;2023-10-09T10:12:06;98705.41;;;14.38;100.00
29907;BME280;16776;50.958;10.994;2023-10-09T10:14:53;98698.00;;;14.51;100.00
29907;BME280;16776;50.958;10.994;2023-10-09T10:17:23;98697.38;;;14.44;100.00
29907;BME280;16776;50.958;10.994;2023-10-09T10:20:04;98702.19;;;14.53;100.00
29907;BME280;16776;50.958;10.994;2023-10-09T10:22:51;98699.94;;;14.46;100.00
29907;BME280;16776;50.958;10.994;2023-10-09T10:25:32;98716.72;;;14.57;100.00
29907;BME280;16776;50.958;10.994;2023-10-09T10:28:20;98719.22;;;14.59;100.00
29907;BME280;16776;50.958;10.994;2023-10-09T10:31:01;98725.66;;;14.50;100.00
29907;BME280;16776;50.958;10.994;2023-10-09T10:34:04;98711.28;;;14.64;100.00
29907;BME280;16776;50.958;10.994;2023-10-09T10:36:36;98713.47;;;14.52;100.00
29907;BME280;16776;50.958;10.994;2023-10-09T10:39:08;98707.31;;;14.55;100.00
29907;BME280;16776;50.958;10.994;2023-10-09T10:41:36;98709.84;;;14.56;100.00
29907;BME280;16776;50.958;10.994;2023-10-09T10:44:23;98708.16;;;14.55;100.00
29907;BME280;16776;50.958;10.994;2023-10-09T10:47:04;98715.03;;;14.56;100.00
29907;BME280;16776;50.958;10.994;2023-10-09T10:49:32;98714.97;;;14.58;100.00
29907;BME280;16776;50.958;10.994;2023-10-09T10:52:03;98709.84;;;14.56;100.00
29907;BME280;16776;50.958;10.994;2023-10-09T10:54:44;98696.91;;;14.56;100.00
29907;BME280;16776;50.958;10.994;2023-10-09T10:57:16;98694.94;;;14.61;100.00
29907;BME280;16776;50.958;10.994;2023-10-09T10:59:56;98694.09;;;14.61;100.00
29907;BME280;16776;50.958;10.994;2023-10-09T11:03:00;98695.19;;;14.55;100.00
29907;BME280;16776;50.958;10.994;2023-10-09T11:05:41;98693.25;;;14.60;100.00
29907;BME280;16776;50.958;10.994;2023-10-09T11:08:11;98682.88;;;14.60;100.00
29907;BME280;16776;50.958;10.994;2023-10-09T11:10:38;98681.34;;;14.56;100.00
29907;BME280;16776;50.958;10.994;2023-10-09T11:13:20;98679.34;;;14.63;100.00
29907;BME280;16776;50.958;10.994;2023-10-09T11:16:00;98669.94;;;14.60;100.00
29907;BME280;16776;50.958;10.994;2023-10-09T11:18:54;98664.88;;;14.57;100.00
29907;BME280;16776;50.958;10.994;2023-10-09T11:21:24;98655.22;;;14.61;100.00
29907;BME280;16776;50.958;10.994;2023-10-09T11:24:00;98659.44;;;14.64;100.00
29907;BME280;16776;50.958;10.994;2023-10-09T11:26:49;98654.38;;;14.60;100.00
29907;BME280;16776;50.958;10.994;2023-10-09T11:29:21;98639.72;;;14.59;100.00
29907;BME280;16776;50.958;10.994;2023-10-09T11:32:17;98651.66;;;14.64;100.00
29907;BME280;16776;50.958;10.994;2023-10-09T11:34:43;98662.09;;;14.62;100.00
29907;BME280;16776;50.958;10.994;2023-10-09T11:37:19;98669.75;;;14.65;100.00
29907;BME280;16776;50.958;10.994;2023-10-09T11:40:04;98671.41;;;14.66;100.00
29907;BME280;16776;50.958;10.994;2023-10-09T11:42:48;98666.81;;;14.73;100.00
29907;BME280;16776;50.958;10.994;2023-10-09T11:45:20;98676.00;;;14.80;100.00
29907;BME280;16776;50.958;10.994;2023-10-09T11:47:49;98675.25;;;14.78;100.00
29907;BME280;16776;50.958;10.994;2023-10-09T11:50:44;98661.75;;;14.90;100.00
29907;BME280;16776;50.958;10.994;2023-10-09T11:53:18;98662.88;;;14.84;100.00
29907;BME280;16776;50.958;10.994;2023-10-09T11:55:59;98656.91;;;14.82;100.00
29907;BME280;16776;50.958;10.994;2023-10-09T11:58:25;98657.69;;;14.84;100.00
29907;BME280;16776;50.958;10.994;2023-10-09T12:00:52;98655.00;;;14.86;100.00
29907;BME280;16776;50.958;10.994;2023-10-09T12:03:23;98652.34;;;14.87;100.00
29907;BME280;16776;50.958;10.994;2023-10-09T12:05:54;98644.56;;;14.87;100.00
29907;BME280;16776;50.958;10.994;2023-10-09T12:08:23;98645.25;;;14.91;100.00
29907;BME280;16776;50.958;10.994;2023-10-09T12:10:52;98635.81;;;14.90;100.00
29907;BME280;16776;50.958;10.994;2023-10-09T12:13:20;98638.34;;;14.91;100.00
29907;BME280;16776;50.958;10.994;2023-10-09T12:15:47;98640.03;;;14.92;100.00
29907;BME280;16776;50.958;10.994;2023-10-09T12:18:14;98633.09;;;14.93;100.00
29907;BME280;16776;50.958;10.994;2023-10-09T12:20:44;98634.78;;;14.94;100.00
29907;BME280;16776;50.958;10.994;2023-10-09T12:23:16;98632.13;;;14.95;100.00
29907;BME280;16776;50.958;10.994;2023-10-09T12:25:44;98631.91;;;15.00;100.00
29907;BME280;16776;50.958;10.994;2023-10-09T12:28:11;98638.00;;;14.99;100.00
29907;BME280;16776;50.958;10.994;2023-10-09T12:30:39;98651.75;;;15.01;100.00
29907;BME280;16776;50.958;10.994;2023-10-09T12:33:06;98645.66;;;15.02;100.00
29907;BME280;16776;50.958;10.994;2023-10-09T12:35:36;98641.94;;;15.08;100.00
29907;BME280;16776;50.958;10.994;2023-10-09T12:38:06;98641.88;;;15.09;100.00
29907;BME280;16776;50.958;10.994;2023-10-09T12:40:35;98642.00;;;15.06;100.00
29907;BME280;16776;50.958;10.994;2023-10-09T12:43:04;98641.88;;;15.09;100.00
29907;BME280;16776;50.958;10.994;2023-10-09T12:45:33;98618.03;;;15.01;100.00
29907;BME280;16776;50.958;10.994;2023-10-09T12:48:00;98631.50;;;15.09;100.00
29907;BME280;16776;50.958;10.994;2023-10-09T12:50:28;98616.69;;;15.11;100.00
29907;BME280;16776;50.958;10.994;2023-10-09T12:52:59;98614.09;;;15.11;100.00
29907;BME280;16776;50.958;10.994;2023-10-09T12:55:28;98609.06;;;15.08;100.00
29907;BME280;16776;50.958;10.994;2023-10-09T12:58:00;98622.44;;;15.18;100.00
29907;BME280;16776;50.958;10.994;2023-10-09T13:00:30;98626.72;;;15.19;100.00
29907;BME280;16776;50.958;10.994;2023-10-09T13:02:58;98633.66;;;15.18;100.00
29907;BME280;16776;50.958;10.994;2023-10-09T13:05:26;98624.91;;;15.21;100.00
29907;BME280;16776;50.958;10.994;2023-10-09T13:07:53;98626.59;;;15.22;100.00
29907;BME280;16776;50.958;10.994;2023-10-09T13:10:21;98622.25;;;15.22;100.00
29907;BME280;16776;50.958;10.994;2023-10-09T13:12:48;98617.81;;;15.24;100.00
29907;BME280;16776;50.958;10.994;2023-10-09T13:15:20;98622.94;;;15.26;100.00